createdAt,value
2018-02-03T00:00:07.556Z,0.00
2018-02-03T00:01:07.552Z,0.00
2018-02-03T00:02:07.543Z,0.00
2018-02-03T00:03:07.534Z,0.00
2018-02-03T00:04:07.531Z,0.00
2018-02-03T00:05:07.520Z,0.00
2018-02-03T00:06:07.515Z,0.00
2018-02-03T00:07:07.505Z,0.00
2018-02-03T00:08:07.499Z,0.00
2018-02-03T00:09:07.490Z,0.00
2018-02-03T00:10:07.485Z,0.00
2018-02-03T00:11:07.480Z,0.00
2018-02-03T00:12:07.470Z,0.00
2018-02-03T00:13:07.466Z,0.00
2018-02-03T00:14:07.455Z,0.00
2018-02-03T00:15:07.446Z,0.00
2018-02-03T00:16:07.441Z,0.00
2018-02-03T00:17:07.431Z,0.00
2018-02-03T00:18:07.431Z,0.00
2018-02-03T00:19:07.419Z,0.00
2018-02-03T00:20:07.413Z,0.00
2018-02-03T00:21:07.404Z,0.00
2018-02-03T00:22:07.398Z,0.00
2018-02-03T00:23:07.391Z,0.00
2018-02-03T00:24:07.383Z,0.00
2018-02-03T00:25:07.375Z,0.00
2018-02-03T00:26:07.370Z,0.00
2018-02-03T00:27:07.370Z,0.00
2018-02-03T00:28:07.353Z,0.00
2018-02-03T00:29:07.348Z,0.00
2018-02-03T00:30:07.348Z,0.00
2018-02-03T00:31:07.333Z,0.00
2018-02-03T00:32:07.328Z,0.00
2018-02-03T00:33:07.322Z,0.00
2018-02-03T00:34:07.311Z,0.00
2018-02-03T00:35:07.305Z,0.00
2018-02-03T00:36:07.297Z,0.00
2018-02-03T00:37:07.291Z,0.00
2018-02-03T00:38:07.283Z,0.00
2018-02-03T00:39:07.327Z,0.00
2018-02-03T00:40:07.268Z,0.00
2018-02-03T00:41:07.261Z,0.00
2018-02-03T00:42:07.254Z,0.00
2018-02-03T00:43:07.247Z,0.00
2018-02-03T00:44:07.240Z,0.00
2018-02-03T00:45:07.253Z,0.00
2018-02-03T00:46:07.247Z,0.00
2018-02-03T00:47:07.218Z,0.00
2018-02-03T00:48:07.218Z,0.00
2018-02-03T00:49:07.212Z,0.00
2018-02-03T00:50:07.196Z,0.00
2018-02-03T00:51:07.189Z,0.00
2018-02-03T00:52:07.185Z,0.00
2018-02-03T00:53:07.175Z,0.00
2018-02-03T00:54:07.176Z,0.00
2018-02-03T00:55:07.173Z,0.00
2018-02-03T00:56:07.156Z,0.00
2018-02-03T00:57:07.148Z,0.00
2018-02-03T00:58:07.137Z,0.00
2018-02-03T00:59:07.140Z,0.00
2018-02-03T01:00:07.124Z,0.00
2018-02-03T01:01:07.119Z,0.00
2018-02-03T01:02:07.111Z,0.00
2018-02-03T01:03:07.102Z,0.00
2018-02-03T01:04:07.095Z,0.00
2018-02-03T01:05:07.088Z,0.00
2018-02-03T01:06:07.080Z,0.00
2018-02-03T01:07:07.073Z,0.00
2018-02-03T01:08:07.069Z,0.00
2018-02-03T01:09:07.061Z,0.00
2018-02-03T01:10:07.055Z,0.00
2018-02-03T01:11:07.048Z,0.00
2018-02-03T01:12:07.038Z,0.00
2018-02-03T01:13:07.030Z,0.00
2018-02-03T01:14:07.022Z,0.00
2018-02-03T01:15:07.013Z,0.00
2018-02-03T01:16:07.007Z,0.00
2018-02-03T01:17:07.007Z,0.00
2018-02-03T01:18:06.989Z,0.00
2018-02-03T01:19:06.984Z,0.00
2018-02-03T01:20:06.976Z,0.00
2018-02-03T01:21:06.968Z,0.00
2018-02-03T01:22:06.963Z,0.00
2018-02-03T01:23:06.959Z,0.00
2018-02-03T01:24:06.942Z,0.00
2018-02-03T01:25:06.937Z,0.00
2018-02-03T01:26:06.929Z,0.00
2018-02-03T01:27:06.923Z,0.00
2018-02-03T01:28:06.916Z,0.00
2018-02-03T01:29:06.912Z,0.00
2018-02-03T01:30:06.898Z,0.00
2018-02-03T01:31:06.892Z,0.00
2018-02-03T01:32:06.886Z,0.00
2018-02-03T01:33:06.877Z,0.00
2018-02-03T01:34:06.870Z,0.00
2018-02-03T01:35:06.861Z,0.00
2018-02-03T01:36:06.855Z,0.00
2018-02-03T01:37:06.844Z,0.00
2018-02-03T01:38:06.838Z,0.00
2018-02-03T01:39:06.829Z,0.00
2018-02-03T01:40:06.819Z,0.00
2018-02-03T01:41:06.815Z,0.00
2018-02-03T01:42:06.807Z,0.00
2018-02-03T01:43:06.802Z,0.00
2018-02-03T01:44:06.792Z,0.00
2018-02-03T01:45:06.782Z,0.00
2018-02-03T01:46:06.775Z,0.00
2018-02-03T01:47:06.768Z,0.00
2018-02-03T01:48:06.760Z,0.00
2018-02-03T01:49:06.753Z,0.00
2018-02-03T01:50:06.745Z,0.00
2018-02-03T01:51:06.737Z,0.00
2018-02-03T01:52:06.728Z,0.00
2018-02-03T01:53:06.727Z,0.00
2018-02-03T01:54:06.716Z,0.00
2018-02-03T01:55:06.706Z,0.00
2018-02-03T01:56:06.704Z,0.00
2018-02-03T01:57:06.691Z,0.00
2018-02-03T01:58:06.683Z,0.00
2018-02-03T01:59:06.674Z,0.00
2018-02-03T02:00:06.670Z,0.00
2018-02-03T02:01:06.660Z,0.00
2018-02-03T02:02:06.653Z,0.00
2018-02-03T02:03:06.647Z,0.00
2018-02-03T02:04:06.639Z,0.00
2018-02-03T02:05:06.629Z,0.00
2018-02-03T02:06:06.620Z,0.00
2018-02-03T02:07:06.615Z,0.00
2018-02-03T02:08:06.605Z,0.00
2018-02-03T02:09:06.598Z,0.00
2018-02-03T02:10:06.591Z,0.00
2018-02-03T02:11:06.582Z,0.00
2018-02-03T02:12:06.576Z,0.00
2018-02-03T02:13:06.569Z,0.00
2018-02-03T02:14:06.562Z,0.00
2018-02-03T02:15:06.555Z,0.00
2018-02-03T02:16:06.545Z,0.00
2018-02-03T02:17:06.538Z,0.00
2018-02-03T02:18:06.531Z,0.00
2018-02-03T02:19:06.521Z,0.00
2018-02-03T02:20:06.518Z,0.00
2018-02-03T02:21:06.504Z,0.00
2018-02-03T02:22:06.499Z,0.00
2018-02-03T02:23:06.491Z,0.00
2018-02-03T02:24:06.488Z,0.00
2018-02-03T02:25:06.477Z,0.00
2018-02-03T02:26:06.468Z,0.00
2018-02-03T02:27:06.461Z,0.00
2018-02-03T02:28:06.454Z,0.00
2018-02-03T02:29:06.447Z,0.00
2018-02-03T02:30:06.442Z,0.00
2018-02-03T02:31:06.430Z,0.00
2018-02-03T02:32:06.425Z,0.00
2018-02-03T02:33:06.418Z,0.00
2018-02-03T02:34:06.408Z,0.00
2018-02-03T02:35:06.402Z,0.00
2018-02-03T02:36:06.394Z,0.00
2018-02-03T02:37:06.388Z,0.00
2018-02-03T02:38:06.381Z,0.00
2018-02-03T02:39:06.376Z,0.00
2018-02-03T02:40:06.365Z,0.00
2018-02-03T02:41:06.358Z,0.00
2018-02-03T02:42:06.352Z,0.00
2018-02-03T02:43:06.343Z,0.00
2018-02-03T02:44:06.336Z,0.00
2018-02-03T02:45:06.326Z,0.00
2018-02-03T02:46:06.323Z,0.00
2018-02-03T02:47:06.314Z,0.00
2018-02-03T02:48:06.307Z,0.00
2018-02-03T02:49:06.302Z,0.00
2018-02-03T02:50:06.291Z,0.00
2018-02-03T02:51:06.284Z,0.00
2018-02-03T02:52:06.275Z,0.00
2018-02-03T02:53:06.268Z,0.00
2018-02-03T02:54:06.265Z,0.00
2018-02-03T02:55:06.254Z,0.00
2018-02-03T02:56:06.248Z,0.00
2018-02-03T02:57:06.239Z,0.00
2018-02-03T02:58:06.232Z,0.00
2018-02-03T02:59:06.228Z,0.00
2018-02-03T03:00:06.216Z,0.00
2018-02-03T03:01:06.207Z,0.00
2018-02-03T03:02:06.203Z,0.00
2018-02-03T03:03:06.197Z,0.00
2018-02-03T03:04:06.188Z,0.00
2018-02-03T03:05:06.193Z,0.00
2018-02-03T03:06:06.173Z,0.00
2018-02-03T03:07:06.163Z,0.00
2018-02-03T03:08:06.159Z,0.00
2018-02-03T03:09:06.147Z,0.00
2018-02-03T03:10:06.141Z,0.00
2018-02-03T03:11:06.135Z,0.00
2018-02-03T03:12:06.126Z,0.00
2018-02-03T03:13:06.117Z,0.00
2018-02-03T03:14:06.114Z,0.00
2018-02-03T03:15:06.114Z,0.00
2018-02-03T03:16:06.104Z,0.00
2018-02-03T03:17:06.087Z,0.00
2018-02-03T03:18:06.083Z,0.00
2018-02-03T03:19:06.083Z,0.00
2018-02-03T03:20:06.092Z,0.00
2018-02-03T03:21:06.058Z,0.00
2018-02-03T03:22:06.051Z,0.00
2018-02-03T03:23:06.041Z,0.00
2018-02-03T03:24:06.033Z,0.00
2018-02-03T03:25:06.030Z,0.00
2018-02-03T03:26:06.018Z,0.00
2018-02-03T03:27:06.014Z,0.00
2018-02-03T03:28:06.003Z,0.00
2018-02-03T03:29:05.996Z,0.00
2018-02-03T03:30:05.989Z,0.00
2018-02-03T03:31:05.979Z,0.00
2018-02-03T03:32:05.977Z,0.00
2018-02-03T03:33:05.964Z,0.00
2018-02-03T03:34:05.960Z,0.00
2018-02-03T03:35:05.950Z,0.00
2018-02-03T03:36:05.953Z,0.00
2018-02-03T03:37:05.935Z,0.00
2018-02-03T03:38:05.928Z,0.00
2018-02-03T03:39:05.921Z,0.00
2018-02-03T03:40:05.910Z,0.00
2018-02-03T03:41:05.908Z,0.00
2018-02-03T03:42:05.897Z,0.00
2018-02-03T03:43:05.896Z,0.00
2018-02-03T03:44:05.884Z,0.00
2018-02-03T03:45:05.875Z,0.00
2018-02-03T03:46:05.867Z,0.00
2018-02-03T03:47:05.860Z,0.00
2018-02-03T03:48:05.852Z,0.00
2018-02-03T03:49:05.844Z,0.00
2018-02-03T03:50:05.845Z,0.00
2018-02-03T03:51:05.829Z,0.00
2018-02-03T03:52:05.821Z,0.00
2018-02-03T03:53:05.814Z,0.00
2018-02-03T03:54:05.807Z,0.00
2018-02-03T03:55:05.798Z,0.00
2018-02-03T03:56:05.791Z,0.00
2018-02-03T03:57:05.784Z,0.00
2018-02-03T03:58:05.777Z,0.00
2018-02-03T03:59:05.770Z,0.00
2018-02-03T04:00:05.761Z,0.00
2018-02-03T04:01:05.751Z,0.00
2018-02-03T04:02:05.743Z,0.00
2018-02-03T04:03:05.740Z,0.00
2018-02-03T04:04:05.730Z,0.00
2018-02-03T04:05:05.723Z,0.00
2018-02-03T04:06:05.720Z,0.00
2018-02-03T04:07:05.714Z,0.00
2018-02-03T04:08:05.701Z,0.00
2018-02-03T04:09:05.693Z,0.00
2018-02-03T04:10:05.705Z,0.00
2018-02-03T04:11:05.688Z,0.00
2018-02-03T04:12:05.673Z,0.00
2018-02-03T04:13:05.721Z,0.00
2018-02-03T04:14:05.659Z,0.00
2018-02-03T04:15:05.696Z,0.00
2018-02-03T04:16:05.744Z,0.00
2018-02-03T04:17:05.661Z,0.00
2018-02-03T04:18:05.629Z,0.00
2018-02-03T04:19:05.625Z,0.00
2018-02-03T04:20:05.686Z,0.00
2018-02-03T04:21:05.605Z,0.00
2018-02-03T04:22:05.612Z,0.00
2018-02-03T04:23:05.611Z,0.00
2018-02-03T04:24:05.619Z,0.00
2018-02-03T04:25:05.625Z,0.00
2018-02-03T04:26:05.640Z,0.00
2018-02-03T04:27:05.641Z,0.00
2018-02-03T04:28:05.613Z,0.00
2018-02-03T04:29:05.654Z,0.00
2018-02-03T04:30:05.560Z,0.00
2018-02-03T04:31:05.550Z,0.00
2018-02-03T04:32:05.611Z,0.00
2018-02-03T04:33:05.580Z,0.00
2018-02-03T04:34:05.597Z,0.00
2018-02-03T04:35:05.599Z,0.00
2018-02-03T04:36:05.589Z,0.00
2018-02-03T04:37:05.609Z,0.00
2018-02-03T04:38:05.616Z,0.00
2018-02-03T04:39:05.629Z,0.00
2018-02-03T04:40:05.609Z,0.00
2018-02-03T04:41:05.620Z,0.00
2018-02-03T04:42:05.559Z,0.00
2018-02-03T04:43:05.528Z,0.00
2018-02-03T04:44:05.511Z,0.00
2018-02-03T04:45:05.566Z,0.00
2018-02-03T04:46:05.557Z,0.00
2018-02-03T04:47:05.581Z,0.00
2018-02-03T04:48:05.608Z,0.00
2018-02-03T04:49:05.473Z,0.00
2018-02-03T04:50:05.567Z,0.00
2018-02-03T04:51:05.600Z,0.00
2018-02-03T04:52:05.420Z,0.00
2018-02-03T04:53:05.639Z,0.00
2018-02-03T04:54:05.638Z,0.00
2018-02-03T04:55:05.619Z,0.00
2018-02-03T04:56:05.581Z,0.00
2018-02-03T04:57:05.592Z,0.00
2018-02-03T04:58:05.605Z,0.00
2018-02-03T04:59:05.545Z,0.00
2018-02-03T05:00:05.528Z,0.00
2018-02-03T05:01:05.553Z,0.00
2018-02-03T05:02:05.587Z,0.00
2018-02-03T05:03:05.594Z,0.00
2018-02-03T05:04:05.555Z,0.00
2018-02-03T05:05:05.570Z,0.00
2018-02-03T05:06:05.610Z,0.00
2018-02-03T05:07:05.602Z,0.00
2018-02-03T05:08:05.494Z,0.00
2018-02-03T05:09:05.538Z,0.00
2018-02-03T05:10:05.493Z,0.00
2018-02-03T05:11:05.557Z,0.00
2018-02-03T05:12:05.534Z,0.00
2018-02-03T05:13:05.551Z,0.00
2018-02-03T05:14:05.554Z,0.00
2018-02-03T05:15:05.576Z,0.00
2018-02-03T05:16:05.537Z,0.00
2018-02-03T05:17:05.550Z,0.00
2018-02-03T05:18:05.543Z,0.00
2018-02-03T05:19:05.180Z,0.00
2018-02-03T05:20:05.171Z,0.00
2018-02-03T05:21:05.463Z,0.00
2018-02-03T05:22:05.475Z,0.00
2018-02-03T05:23:05.482Z,0.00
2018-02-03T05:24:05.512Z,0.00
2018-02-03T05:25:05.408Z,0.00
2018-02-03T05:26:05.126Z,0.00
2018-02-03T05:27:05.118Z,0.00
2018-02-03T05:28:05.110Z,0.00
2018-02-03T05:29:05.105Z,0.00
2018-02-03T05:30:05.098Z,0.00
2018-02-03T05:31:05.088Z,0.00
2018-02-03T05:32:05.087Z,0.00
2018-02-03T05:33:05.072Z,0.00
2018-02-03T05:34:05.074Z,0.00
2018-02-03T05:35:05.078Z,0.00
2018-02-03T05:36:05.051Z,0.00
2018-02-03T05:37:05.049Z,0.00
2018-02-03T05:38:05.035Z,0.00
2018-02-03T05:39:05.034Z,0.00
2018-02-03T05:40:05.026Z,0.00
2018-02-03T05:41:05.015Z,0.00
2018-02-03T05:42:05.008Z,0.00
2018-02-03T05:43:04.998Z,0.00
2018-02-03T05:44:04.991Z,0.00
2018-02-03T05:45:05.012Z,0.00
2018-02-03T05:46:04.975Z,0.00
2018-02-03T05:47:04.972Z,0.00
2018-02-03T05:48:04.960Z,0.00
2018-02-03T05:49:04.952Z,0.00
2018-02-03T05:50:04.949Z,0.00
2018-02-03T05:51:04.971Z,0.00
2018-02-03T05:52:04.930Z,0.00
2018-02-03T05:53:04.922Z,0.00
2018-02-03T05:54:04.917Z,0.00
2018-02-03T05:55:04.908Z,0.00
2018-02-03T05:56:04.899Z,0.00
2018-02-03T05:57:04.894Z,0.00
2018-02-03T05:58:04.884Z,0.00
2018-02-03T05:59:04.878Z,0.00
2018-02-03T06:00:04.868Z,0.00
2018-02-03T06:01:04.864Z,0.00
2018-02-03T06:02:04.851Z,0.00
2018-02-03T06:03:04.848Z,0.00
2018-02-03T06:04:04.841Z,0.00
2018-02-03T06:05:04.830Z,0.00
2018-02-03T06:06:04.825Z,0.00
2018-02-03T06:07:04.818Z,0.00
2018-02-03T06:08:04.816Z,0.00
2018-02-03T06:09:04.801Z,0.00
2018-02-03T06:10:04.795Z,0.00
2018-02-03T06:11:04.787Z,0.00
2018-02-03T06:12:04.780Z,0.00
2018-02-03T06:13:04.772Z,0.00
2018-02-03T06:14:04.765Z,0.00
2018-02-03T06:15:04.758Z,0.00
2018-02-03T06:16:04.750Z,0.00
2018-02-03T06:17:04.741Z,0.00
2018-02-03T06:18:04.734Z,0.00
2018-02-03T06:19:04.726Z,0.00
2018-02-03T06:20:04.721Z,0.00
2018-02-03T06:21:04.712Z,0.00
2018-02-03T06:22:04.705Z,0.00
2018-02-03T06:23:04.698Z,0.00
2018-02-03T06:24:04.692Z,0.00
2018-02-03T06:25:04.682Z,0.00
2018-02-03T06:26:04.678Z,0.00
2018-02-03T06:27:04.669Z,0.00
2018-02-03T06:28:04.660Z,4.00
2018-02-03T06:29:04.652Z,4.00
2018-02-03T06:30:04.646Z,4.00
2018-02-03T06:31:04.637Z,0.00
2018-02-03T06:32:04.629Z,0.00
2018-02-03T06:33:04.623Z,4.00
2018-02-03T06:34:04.617Z,4.00
2018-02-03T06:35:04.609Z,4.00
2018-02-03T06:36:04.599Z,4.00
2018-02-03T06:37:04.592Z,4.00
2018-02-03T06:38:04.583Z,4.00
2018-02-03T06:39:04.577Z,8.00
2018-02-03T06:40:04.569Z,4.00
2018-02-03T06:41:04.562Z,8.00
2018-02-03T06:42:04.555Z,8.00
2018-02-03T06:43:04.546Z,8.00
2018-02-03T06:44:04.540Z,8.00
2018-02-03T06:45:04.530Z,8.00
2018-02-03T06:46:04.523Z,12.00
2018-02-03T06:47:04.517Z,12.00
2018-02-03T06:48:04.510Z,12.00
2018-02-03T06:49:04.506Z,16.00
2018-02-03T06:50:04.499Z,16.00
2018-02-03T06:51:04.486Z,16.00
2018-02-03T06:52:04.479Z,16.00
2018-02-03T06:53:04.472Z,20.00
2018-02-03T06:54:04.466Z,20.00
2018-02-03T06:55:04.459Z,20.00
2018-02-03T06:56:04.448Z,24.00
2018-02-03T06:57:04.440Z,24.00
2018-02-03T06:58:04.434Z,28.00
2018-02-03T06:59:04.426Z,32.00
2018-02-03T07:00:05.451Z,32.00
2018-02-03T07:01:04.412Z,32.00
2018-02-03T07:02:04.409Z,36.00
2018-02-03T07:03:04.431Z,32.00
2018-02-03T07:04:04.387Z,36.00
2018-02-03T07:05:04.388Z,36.00
2018-02-03T07:06:04.370Z,40.00
2018-02-03T07:07:04.366Z,40.00
2018-02-03T07:08:04.356Z,44.00
2018-02-03T07:09:04.349Z,48.00
2018-02-03T07:10:04.344Z,52.00
2018-02-03T07:11:04.334Z,56.00
2018-02-03T07:12:04.328Z,56.00
2018-02-03T07:13:04.320Z,56.00
2018-02-03T07:14:04.315Z,56.00
2018-02-03T07:15:04.304Z,60.00
2018-02-03T07:16:04.298Z,64.00
2018-02-03T07:17:04.288Z,68.00
2018-02-03T07:18:04.283Z,72.00
2018-02-03T07:19:05.397Z,80.00
2018-02-03T07:20:04.269Z,88.00
2018-02-03T07:21:04.270Z,96.00
2018-02-03T07:22:04.253Z,100.00
2018-02-03T07:23:04.245Z,100.00
2018-02-03T07:24:04.239Z,100.00
2018-02-03T07:25:04.230Z,100.00
2018-02-03T07:26:04.231Z,104.00
2018-02-03T07:27:04.213Z,108.00
2018-02-03T07:28:04.207Z,108.00
2018-02-03T07:29:04.200Z,116.00
2018-02-03T07:30:04.192Z,120.00
2018-02-03T07:31:04.184Z,124.00
2018-02-03T07:32:04.189Z,128.00
2018-02-03T07:33:04.169Z,136.00
2018-02-03T07:34:04.172Z,140.00
2018-02-03T07:35:04.155Z,140.00
2018-02-03T07:36:04.195Z,144.00
2018-02-03T07:37:04.139Z,148.00
2018-02-03T07:38:04.134Z,152.00
2018-02-03T07:39:04.124Z,152.00
2018-02-03T07:40:04.121Z,152.00
2018-02-03T07:41:04.109Z,164.00
2018-02-03T07:42:04.104Z,172.00
2018-02-03T07:43:04.101Z,188.00
2018-02-03T07:44:04.107Z,200.00
2018-02-03T07:45:04.080Z,208.00
2018-02-03T07:46:04.094Z,216.00
2018-02-03T07:47:04.066Z,212.00
2018-02-03T07:48:04.062Z,208.00
2018-02-03T07:49:04.049Z,212.00
2018-02-03T07:50:04.043Z,216.00
2018-02-03T07:51:04.039Z,224.00
2018-02-03T07:52:04.026Z,228.00
2018-02-03T07:53:04.021Z,228.00
2018-02-03T07:54:04.034Z,232.00
2018-02-03T07:55:04.011Z,240.00
2018-02-03T07:56:03.998Z,244.00
2018-02-03T07:57:03.996Z,252.00
2018-02-03T07:58:04.034Z,264.00
2018-02-03T07:59:03.976Z,276.00
2018-02-03T08:00:03.967Z,280.00
2018-02-03T08:01:03.959Z,284.00
2018-02-03T08:02:03.953Z,320.00
2018-02-03T08:03:03.951Z,340.00
2018-02-03T08:04:03.938Z,364.00
2018-02-03T08:05:03.931Z,396.00
2018-02-03T08:06:03.928Z,420.00
2018-02-03T08:07:03.924Z,440.00
2018-02-03T08:08:03.910Z,464.00
2018-02-03T08:09:03.914Z,484.00
2018-02-03T08:10:03.893Z,520.00
2018-02-03T08:11:03.888Z,540.00
2018-02-03T08:12:03.878Z,540.00
2018-02-03T08:13:03.881Z,536.00
2018-02-03T08:14:03.865Z,520.00
2018-02-03T08:15:03.858Z,504.00
2018-02-03T08:16:03.850Z,480.00
2018-02-03T08:17:03.841Z,492.00
2018-02-03T08:18:03.836Z,492.00
2018-02-03T08:19:03.827Z,492.00
2018-02-03T08:20:03.820Z,504.00
2018-02-03T08:21:03.810Z,524.00
2018-02-03T08:22:03.806Z,552.00
2018-02-03T08:23:03.800Z,596.00
2018-02-03T08:24:03.789Z,652.00
2018-02-03T08:25:03.784Z,672.00
2018-02-03T08:26:03.774Z,672.00
2018-02-03T08:27:03.767Z,636.00
2018-02-03T08:28:03.758Z,600.00
2018-02-03T08:29:03.764Z,580.00
2018-02-03T08:30:03.746Z,568.00
2018-02-03T08:31:03.741Z,552.00
2018-02-03T08:32:03.731Z,524.00
2018-02-03T08:33:03.727Z,512.00
2018-02-03T08:34:03.719Z,508.00
2018-02-03T08:35:03.709Z,520.00
2018-02-03T08:36:03.700Z,540.00
2018-02-03T08:37:03.698Z,540.00
2018-02-03T08:38:03.686Z,524.00
2018-02-03T08:39:03.699Z,492.00
2018-02-03T08:40:03.681Z,468.00
2018-02-03T08:41:03.664Z,460.00
2018-02-03T08:42:03.656Z,460.00
2018-02-03T08:43:03.651Z,464.00
2018-02-03T08:44:03.642Z,468.00
2018-02-03T08:45:03.635Z,488.00
2018-02-03T08:46:03.640Z,516.00
2018-02-03T08:47:03.620Z,548.00
2018-02-03T08:48:03.614Z,580.00
2018-02-03T08:49:03.606Z,632.00
2018-02-03T08:50:03.598Z,700.00
2018-02-03T08:51:03.591Z,768.00
2018-02-03T08:52:03.583Z,836.00
2018-02-03T08:53:03.575Z,920.00
2018-02-03T08:54:03.569Z,980.00
2018-02-03T08:55:03.561Z,1048.00
2018-02-03T08:56:03.553Z,1072.00
2018-02-03T08:57:03.545Z,1144.00
2018-02-03T08:58:03.542Z,1236.00
2018-02-03T08:59:03.530Z,1264.00
2018-02-03T09:00:03.524Z,1272.00
2018-02-03T09:01:03.516Z,1320.00
2018-02-03T09:02:03.510Z,1328.00
2018-02-03T09:03:03.505Z,1324.00
2018-02-03T09:04:03.497Z,1304.00
2018-02-03T09:05:03.484Z,1336.00
2018-02-03T09:06:03.480Z,1348.00
2018-02-03T09:07:03.473Z,1300.00
2018-02-03T09:08:03.466Z,1144.00
2018-02-03T09:09:03.458Z,1116.00
2018-02-03T09:10:03.459Z,1052.00
2018-02-03T09:11:03.444Z,1012.00
2018-02-03T09:12:03.452Z,1004.00
2018-02-03T09:13:03.429Z,996.00
2018-02-03T09:14:03.422Z,984.00
2018-02-03T09:15:03.413Z,972.00
2018-02-03T09:16:03.406Z,996.00
2018-02-03T09:17:03.398Z,1076.00
2018-02-03T09:18:03.390Z,1188.00
2018-02-03T09:19:03.384Z,1296.00
2018-02-03T09:20:03.378Z,1612.00
2018-02-03T09:21:03.384Z,2080.00
2018-02-03T09:22:03.362Z,2348.00
2018-02-03T09:23:03.355Z,3132.00
2018-02-03T09:24:03.349Z,3956.00
2018-02-03T09:25:03.349Z,5504.00
2018-02-03T09:26:03.335Z,12452.00
2018-02-03T09:27:03.327Z,74176.00
2018-02-03T09:28:03.320Z,72352.00
2018-02-03T09:29:03.315Z,16992.00
2018-02-03T09:30:03.307Z,32768.00
2018-02-03T09:31:03.303Z,77536.00
2018-02-03T09:32:03.297Z,9596.00
2018-02-03T09:33:03.295Z,13240.00
2018-02-03T09:34:03.290Z,5836.00
2018-02-03T09:35:03.291Z,5104.00
2018-02-03T09:36:03.287Z,5380.00
2018-02-03T09:37:03.337Z,5452.00
2018-02-03T09:38:03.276Z,5564.00
2018-02-03T09:39:03.273Z,6072.00
2018-02-03T09:40:03.268Z,6872.00
2018-02-03T09:41:03.265Z,9660.00
2018-02-03T09:42:03.261Z,7932.00
2018-02-03T09:43:03.258Z,9424.00
2018-02-03T09:44:03.254Z,51904.00
2018-02-03T09:45:03.248Z,53504.00
2018-02-03T09:46:03.247Z,13064.00
2018-02-03T09:47:03.243Z,64192.00
2018-02-03T09:48:03.237Z,6520.00
2018-02-03T09:49:03.268Z,4240.00
2018-02-03T09:50:03.231Z,3644.00
2018-02-03T09:51:03.232Z,3444.00
2018-02-03T09:52:03.223Z,4256.00
2018-02-03T09:53:03.220Z,2884.00
2018-02-03T09:54:03.216Z,2536.00
2018-02-03T09:55:03.219Z,2536.00
2018-02-03T09:56:03.243Z,2480.00
2018-02-03T09:57:03.206Z,2504.00
2018-02-03T09:58:03.204Z,2564.00
2018-02-03T09:59:03.199Z,2488.00
2018-02-03T10:00:03.191Z,2516.00
2018-02-03T10:01:03.188Z,2548.00
2018-02-03T10:02:03.184Z,2656.00
2018-02-03T10:03:03.180Z,2700.00
2018-02-03T10:04:03.218Z,2796.00
2018-02-03T10:05:03.168Z,2900.00
2018-02-03T10:06:03.166Z,2804.00
2018-02-03T10:07:03.161Z,2656.00
2018-02-03T10:08:03.158Z,2896.00
2018-02-03T10:09:03.146Z,3492.00
2018-02-03T10:10:03.144Z,3636.00
2018-02-03T10:11:03.136Z,3876.00
2018-02-03T10:12:03.133Z,4556.00
2018-02-03T10:13:03.128Z,5936.00
2018-02-03T10:14:03.119Z,9136.00
2018-02-03T10:15:03.120Z,5560.00
2018-02-03T10:16:03.112Z,12096.00
2018-02-03T10:17:03.104Z,6564.00
2018-02-03T10:18:03.099Z,3604.00
2018-02-03T10:19:03.095Z,3236.00
2018-02-03T10:20:03.094Z,2948.00
2018-02-03T10:21:03.083Z,3108.00
2018-02-03T10:22:03.077Z,3056.00
2018-02-03T10:23:03.072Z,3092.00
2018-02-03T10:24:03.063Z,3580.00
2018-02-03T10:25:03.060Z,3392.00
2018-02-03T10:26:03.054Z,10264.00
2018-02-03T10:27:03.052Z,78528.00
2018-02-03T10:28:03.044Z,46144.00
2018-02-03T10:29:03.039Z,94336.00
2018-02-03T10:30:03.032Z,20832.00
2018-02-03T10:31:03.037Z,20160.00
2018-02-03T10:32:03.059Z,42976.00
2018-02-03T10:33:03.022Z,85280.00
2018-02-03T10:34:03.019Z,91136.00
2018-02-03T10:35:03.017Z,46720.00
2018-02-03T10:36:03.015Z,7924.00
2018-02-03T10:37:03.013Z,8136.00
2018-02-03T10:38:03.011Z,6536.00
2018-02-03T10:39:03.016Z,11496.00
2018-02-03T10:40:03.010Z,9488.00
2018-02-03T10:41:03.006Z,5692.00
2018-02-03T10:42:03.007Z,5488.00
2018-02-03T10:43:03.005Z,10304.00
2018-02-03T10:44:03.004Z,8644.00
2018-02-03T10:45:03.003Z,31200.00
2018-02-03T10:46:03.000Z,76320.00
2018-02-03T10:47:03.002Z,11976.00
2018-02-03T10:57:26.712Z,1564.00
2018-02-03T10:58:26.616Z,1416.00
2018-02-03T11:00:20.991Z,1288.00
2018-02-03T11:01:20.961Z,1196.00
2018-02-03T11:03:15.323Z,1016.00
2018-02-03T11:04:15.311Z,964.00
2018-02-03T11:06:09.719Z,864.00
2018-02-03T11:07:09.694Z,828.00
2018-02-03T11:09:04.041Z,808.00
2018-02-03T11:10:04.084Z,808.00
2018-02-03T11:11:58.416Z,880.00
2018-02-03T11:12:58.364Z,932.00
2018-02-03T11:14:52.759Z,1060.00
2018-02-03T11:15:52.758Z,1160.00
2018-02-03T11:17:47.122Z,1440.00
2018-02-03T11:18:47.087Z,1624.00
2018-02-03T11:20:41.459Z,1844.00
2018-02-03T11:21:41.441Z,1924.00
2018-02-03T11:23:35.770Z,1928.00
2018-02-03T11:24:35.758Z,2032.00
2018-02-03T11:26:30.188Z,2268.00
2018-02-03T11:27:30.128Z,2296.00
2018-02-03T11:29:24.490Z,2300.00
2018-02-03T11:30:24.451Z,2212.00
2018-02-03T11:32:18.870Z,1876.00
2018-02-03T11:33:18.813Z,1784.00
2018-02-03T11:35:13.210Z,1732.00
2018-02-03T11:36:13.146Z,1772.00
2018-02-03T11:38:07.531Z,1472.00
2018-02-03T11:39:07.516Z,1400.00
2018-02-03T11:41:01.921Z,1372.00
2018-02-03T11:42:01.843Z,1276.00
2018-02-03T11:43:56.201Z,1240.00
2018-02-03T11:44:56.194Z,1256.00
2018-02-03T11:46:50.607Z,1328.00
2018-02-03T11:47:50.535Z,1400.00
2018-02-03T11:49:45.149Z,1568.00
2018-02-03T11:50:45.132Z,1604.00
2018-02-03T11:52:39.526Z,1640.00
2018-02-03T11:53:39.480Z,1616.00
2018-02-03T11:55:33.867Z,1724.00
2018-02-03T11:56:33.821Z,1744.00
2018-02-03T11:58:30.765Z,1768.00
2018-02-03T11:59:28.181Z,1708.00
2018-02-03T12:01:22.616Z,1964.00
2018-02-03T12:02:22.537Z,2424.00
2018-02-03T12:03:22.530Z,2680.00
2018-02-03T12:04:22.528Z,2956.00
2018-02-03T12:05:22.519Z,3504.00
2018-02-03T12:06:22.584Z,4584.00
2018-02-03T12:07:22.595Z,4704.00
2018-02-03T12:08:22.601Z,4512.00
2018-02-03T12:09:22.493Z,4760.00
2018-02-03T12:10:22.484Z,4256.00
2018-02-03T12:11:22.477Z,4380.00
2018-02-03T12:12:22.479Z,4748.00
2018-02-03T12:13:22.468Z,5168.00
2018-02-03T12:14:22.462Z,5452.00
2018-02-03T12:15:22.452Z,5888.00
2018-02-03T12:16:22.447Z,5656.00
2018-02-03T12:17:22.442Z,5504.00
2018-02-03T12:18:22.434Z,5372.00
2018-02-03T12:19:22.425Z,4600.00
2018-02-03T12:20:22.422Z,4268.00
2018-02-03T12:21:22.431Z,4148.00
2018-02-03T12:22:22.414Z,4096.00
2018-02-03T12:23:22.404Z,3952.00
2018-02-03T12:24:22.404Z,4008.00
2018-02-03T12:25:22.403Z,4344.00
2018-02-03T12:26:22.386Z,4464.00
2018-02-03T12:27:22.411Z,4416.00
2018-02-03T12:28:22.393Z,4292.00
2018-02-03T12:29:22.391Z,4092.00
2018-02-03T12:30:22.363Z,3740.00
2018-02-03T12:31:22.353Z,3652.00
2018-02-03T12:32:24.102Z,3728.00
2018-02-03T12:33:22.343Z,3948.00
2018-02-03T12:34:22.341Z,4272.00
2018-02-03T12:35:22.330Z,4372.00
2018-02-03T12:36:22.327Z,4312.00
2018-02-03T12:37:22.325Z,4372.00
2018-02-03T12:38:22.328Z,4416.00
2018-02-03T12:39:22.315Z,4596.00
2018-02-03T12:40:22.307Z,4484.00
2018-02-03T12:41:22.305Z,4148.00
2018-02-03T12:42:22.310Z,3916.00
2018-02-03T12:43:22.282Z,3588.00
2018-02-03T12:44:22.277Z,3536.00
2018-02-03T12:45:22.267Z,3568.00
2018-02-03T12:46:22.272Z,3588.00
2018-02-03T12:47:22.261Z,3792.00
2018-02-03T12:48:22.248Z,3788.00
2018-02-03T12:49:22.249Z,3712.00
2018-02-03T12:50:22.276Z,3728.00
2018-02-03T12:51:23.111Z,3928.00
2018-02-03T12:52:27.191Z,3676.00
2018-02-03T12:53:22.283Z,3688.00
2018-02-03T12:54:22.214Z,3900.00
2018-02-03T12:55:22.211Z,3608.00
2018-02-03T12:56:23.113Z,3716.00
2018-02-03T12:57:22.193Z,3832.00
2018-02-03T12:58:22.217Z,3788.00
2018-02-03T12:59:22.449Z,3848.00
2018-02-03T13:00:22.176Z,4124.00
2018-02-03T13:01:22.175Z,4280.00
2018-02-03T13:02:22.163Z,3980.00
2018-02-03T13:03:22.157Z,4436.00
2018-02-03T13:04:22.156Z,4272.00
2018-02-03T13:05:22.145Z,4232.00
2018-02-03T13:06:22.138Z,4312.00
2018-02-03T13:07:22.133Z,4308.00
2018-02-03T13:08:22.128Z,4096.00
2018-02-03T13:09:22.119Z,3868.00
2018-02-03T13:10:22.135Z,3696.00
2018-02-03T13:11:22.108Z,3692.00
2018-02-03T13:12:22.102Z,3620.00
2018-02-03T13:13:22.093Z,3488.00
2018-02-03T13:14:22.124Z,3516.00
2018-02-03T13:15:22.082Z,3524.00
2018-02-03T13:16:22.087Z,3544.00